createdAt,value
2019-05-25T00:03:53.539Z,89.0
2019-05-25T00:04:53.688Z,90.0
2019-05-25T00:08:53.658Z,90.0
2019-05-25T00:09:53.696Z,90.0
2019-05-25T00:12:43.842Z,91.0
2019-05-25T00:13:53.792Z,91.0
2019-05-25T00:14:53.803Z,91.0
2019-05-25T00:15:44.072Z,91.0
2019-05-25T00:18:54.016Z,91.0
2019-05-25T00:19:54.040Z,91.0
2019-05-25T00:23:54.090Z,91.0
2019-05-25T00:24:54.207Z,91.0
2019-05-25T00:26:45.279Z,91.0
2019-05-25T00:28:54.239Z,91.0
2019-05-25T00:29:54.280Z,91.0
2019-05-25T00:33:54.372Z,91.0
2019-05-25T00:34:54.477Z,92.0
2019-05-25T00:38:54.535Z,92.0
2019-05-25T00:39:54.554Z,92.0
2019-05-25T00:43:54.610Z,92.0
2019-05-25T00:44:54.627Z,92.0
2019-05-25T00:48:54.685Z,92.0
2019-05-25T00:49:54.731Z,91.0
2019-05-25T00:53:54.946Z,90.0
2019-05-25T00:54:54.910Z,90.0
2019-05-25T00:58:54.977Z,90.0
2019-05-25T00:59:56.028Z,90.0
2019-05-25T01:09:25.273Z,89.0
2019-05-25T01:10:25.426Z,89.0
2019-05-25T01:11:25.296Z,89.0
2019-05-25T01:12:25.329Z,89.0
2019-05-25T01:13:25.436Z,89.0
2019-05-25T01:14:35.653Z,89.0
2019-05-25T01:15:25.680Z,89.0
2019-05-25T01:19:25.862Z,89.0
2019-05-25T01:20:25.867Z,89.0
2019-05-25T01:21:26.036Z,89.0
2019-05-25T01:22:25.919Z,89.0
2019-05-25T01:24:25.994Z,89.0
2019-05-25T01:29:26.303Z,89.0
2019-05-25T01:34:26.343Z,89.0
2019-05-25T01:44:26.597Z,91.0
2019-05-25T01:54:26.785Z,91.0
2019-05-25T01:59:26.882Z,91.0
2019-05-25T02:03:06.964Z,92.0
2019-05-25T02:04:26.968Z,92.0
2019-05-25T02:05:26.979Z,92.0
2019-05-25T02:06:27.071Z,92.0
2019-05-25T02:09:27.163Z,92.0
2019-05-25T02:13:07.231Z,92.0
2019-05-25T02:17:18.527Z,93.0
2019-05-25T02:19:27.360Z,92.0
2019-05-25T02:24:27.449Z,91.0
2019-05-25T02:27:07.538Z,91.0
2019-05-25T02:28:07.692Z,91.0
2019-05-25T02:39:27.833Z,90.0
2019-05-25T02:44:27.965Z,89.0
2019-05-25T02:49:28.359Z,89.0
2019-05-25T02:53:28.288Z,88.0
2019-05-25T02:54:28.352Z,88.0
2019-05-25T02:58:28.441Z,89.0
2019-05-25T02:59:28.452Z,89.0
2019-05-25T03:03:28.517Z,90.0
2019-05-25T03:04:28.519Z,90.0
2019-05-25T03:08:28.610Z,91.0
2019-05-25T03:09:28.658Z,91.0
2019-05-25T03:13:28.740Z,91.0
2019-05-25T03:14:28.749Z,91.0
2019-05-25T03:15:28.821Z,91.0
2019-05-25T03:18:38.875Z,92.0
2019-05-25T03:19:38.900Z,92.0
2019-05-25T03:21:38.923Z,92.0
2019-05-25T03:22:20.084Z,92.0
2019-05-25T03:26:39.011Z,93.0
2019-05-25T03:31:39.166Z,93.0
2019-05-25T03:33:20.255Z,93.0
2019-05-25T03:36:39.286Z,93.0
2019-05-25T03:41:39.404Z,93.0
2019-05-25T03:44:20.031Z,93.0
2019-05-25T03:46:39.470Z,93.0
2019-05-25T03:51:39.590Z,93.0
2019-05-25T03:56:39.811Z,93.0
2019-05-25T04:01:39.856Z,92.0
2019-05-25T04:06:40.117Z,92.0
2019-05-25T04:11:40.220Z,92.0
2019-05-25T04:16:40.458Z,92.0
2019-05-25T04:21:40.539Z,92.0
2019-05-25T04:26:40.594Z,93.0
2019-05-25T04:31:40.785Z,94.0
2019-05-25T04:36:30.864Z,95.0
2019-05-25T04:37:30.882Z,95.0
2019-05-25T04:38:30.901Z,95.0
2019-05-25T04:39:30.920Z,95.0
2019-05-25T04:40:30.921Z,95.0
2019-05-25T04:41:41.036Z,95.0
2019-05-25T04:42:31.016Z,95.0
2019-05-25T04:43:31.039Z,95.0
2019-05-25T04:44:31.051Z,96.0
2019-05-25T04:45:31.114Z,96.0
2019-05-25T04:46:41.160Z,96.0
2019-05-25T04:47:31.167Z,96.0
2019-05-25T04:48:31.172Z,96.0
2019-05-25T04:49:31.205Z,96.0
2019-05-25T04:50:31.443Z,96.0
2019-05-25T04:51:41.339Z,96.0
2019-05-25T04:52:31.348Z,96.0
2019-05-25T04:53:31.365Z,96.0
2019-05-25T04:54:31.376Z,96.0
2019-05-25T04:55:31.499Z,96.0
2019-05-25T04:56:41.513Z,96.0
2019-05-25T04:57:31.525Z,96.0
2019-05-25T04:58:31.552Z,96.0
2019-05-25T04:59:31.551Z,96.0
2019-05-25T05:00:31.568Z,96.0
2019-05-25T05:01:41.738Z,96.0
2019-05-25T05:02:31.613Z,96.0
2019-05-25T05:03:31.620Z,96.0
2019-05-25T05:04:31.647Z,96.0
2019-05-25T05:05:31.686Z,96.0
2019-05-25T05:06:41.696Z,96.0
2019-05-25T05:07:41.772Z,96.0
2019-05-25T05:08:35.441Z,96.0
2019-05-25T05:09:31.789Z,96.0
2019-05-25T05:10:31.839Z,96.0
2019-05-25T05:11:41.912Z,96.0
2019-05-25T05:12:31.919Z,96.0
2019-05-25T05:13:31.970Z,96.0
2019-05-25T05:14:32.054Z,96.0
2019-05-25T05:15:31.987Z,96.0
2019-05-25T05:16:42.016Z,96.0
2019-05-25T05:17:32.009Z,96.0
2019-05-25T05:18:32.020Z,96.0
2019-05-25T05:19:32.063Z,96.0
2019-05-25T05:20:32.075Z,96.0
2019-05-25T05:21:42.187Z,97.0
2019-05-25T05:22:42.200Z,97.0
2019-05-25T05:23:42.352Z,97.0
2019-05-25T05:24:42.242Z,97.0
2019-05-25T05:25:42.273Z,97.0
2019-05-25T05:26:56.047Z,96.0
2019-05-25T05:27:42.292Z,97.0
2019-05-25T05:28:42.305Z,96.0
2019-05-25T05:29:32.327Z,97.0
2019-05-25T05:30:32.363Z,97.0
2019-05-25T05:31:42.387Z,97.0
2019-05-25T05:32:42.393Z,97.0
2019-05-25T05:33:42.409Z,97.0
2019-05-25T05:34:42.416Z,97.0
2019-05-25T05:35:42.450Z,97.0
2019-05-25T05:37:42.710Z,97.0
2019-05-25T05:38:42.606Z,97.0
2019-05-25T05:39:32.647Z,97.0
2019-05-25T05:40:32.654Z,97.0
2019-05-25T05:41:42.669Z,96.0
2019-05-25T05:42:42.696Z,96.0
2019-05-25T05:43:42.711Z,96.0
2019-05-25T05:44:42.749Z,96.0
2019-05-25T05:45:42.757Z,97.0
2019-05-25T05:46:42.792Z,97.0
2019-05-25T05:47:32.799Z,96.0
2019-05-25T05:48:33.018Z,97.0
2019-05-25T05:49:32.925Z,97.0
2019-05-25T05:50:32.935Z,97.0
2019-05-25T05:52:42.934Z,96.0
2019-05-25T05:53:32.977Z,96.0
2019-05-25T05:54:33.034Z,96.0
2019-05-25T05:55:33.040Z,96.0
2019-05-25T05:57:43.065Z,96.0
2019-05-25T05:58:43.075Z,96.0
2019-05-25T05:59:44.182Z,96.0
2019-05-25T06:00:43.151Z,97.0
2019-05-25T06:02:03.224Z,96.0
2019-05-25T06:02:33.187Z,96.0
2019-05-25T06:03:33.197Z,96.0
2019-05-25T06:04:33.210Z,96.0
2019-05-25T06:05:33.275Z,96.0
2019-05-25T06:06:43.281Z,96.0
2019-05-25T06:07:43.293Z,96.0
2019-05-25T06:08:43.310Z,96.0
2019-05-25T06:09:43.377Z,96.0
2019-05-25T06:10:34.643Z,96.0
2019-05-25T06:11:43.466Z,96.0
2019-05-25T06:12:33.472Z,96.0
2019-05-25T06:13:33.519Z,96.0
2019-05-25T06:14:33.545Z,95.0
2019-05-25T06:15:33.528Z,94.0
2019-05-25T06:17:43.568Z,95.0
2019-05-25T06:18:43.601Z,95.0
2019-05-25T06:19:33.597Z,95.0
2019-05-25T06:20:33.616Z,95.0
2019-05-25T06:21:54.730Z,95.0
2019-05-25T06:22:33.706Z,95.0
2019-05-25T06:23:33.723Z,95.0
2019-05-25T06:24:33.744Z,95.0
2019-05-25T06:25:33.810Z,95.0
2019-05-25T06:27:43.860Z,95.0
2019-05-25T06:28:43.851Z,95.0
2019-05-25T06:29:43.883Z,95.0
2019-05-25T06:31:03.895Z,95.0
2019-05-25T06:32:34.070Z,95.0
2019-05-25T06:33:33.938Z,95.0
2019-05-25T06:34:33.968Z,95.0
2019-05-25T06:35:33.976Z,95.0
2019-05-25T06:37:44.063Z,95.0
2019-05-25T06:38:44.077Z,95.0
2019-05-25T06:39:34.097Z,95.0
2019-05-25T06:40:34.118Z,95.0
2019-05-25T06:42:34.210Z,94.0
2019-05-25T06:43:34.183Z,95.0
2019-05-25T06:44:34.192Z,95.0
2019-05-25T06:45:34.292Z,95.0
2019-05-25T06:47:44.282Z,95.0
2019-05-25T06:48:44.297Z,95.0
2019-05-25T06:49:34.347Z,95.0
2019-05-25T06:50:34.377Z,95.0
2019-05-25T06:52:34.435Z,95.0
2019-05-25T06:53:34.481Z,95.0
2019-05-25T06:54:34.559Z,95.0
2019-05-25T06:55:35.553Z,95.0
2019-05-25T06:57:44.535Z,95.0
2019-05-25T06:58:34.570Z,96.0
2019-05-25T06:59:34.583Z,96.0
2019-05-25T07:00:34.604Z,95.0
2019-05-25T07:01:44.617Z,95.0
2019-05-25T07:02:34.746Z,93.0
2019-05-25T07:03:34.820Z,94.0
2019-05-25T07:04:34.829Z,95.0
2019-05-25T07:06:15.007Z,94.0
2019-05-25T07:07:14.858Z,94.0
2019-05-25T07:07:44.876Z,95.0
2019-05-25T07:11:35.029Z,95.0
2019-05-25T07:51:35.978Z,94.0
2019-05-25T07:52:36.029Z,93.0
2019-05-25T07:53:36.034Z,93.0
2019-05-25T07:54:36.105Z,93.0
2019-05-25T07:55:36.518Z,93.0
2019-05-25T07:57:46.579Z,90.0
2019-05-25T07:58:36.527Z,89.0
2019-05-25T07:59:36.540Z,90.0
2019-05-25T08:00:36.564Z,90.0
2019-05-25T08:02:36.597Z,90.0
2019-05-25T08:03:39.712Z,91.0
2019-05-25T08:04:36.689Z,92.0
2019-05-25T08:06:46.813Z,92.0
2019-05-25T08:11:46.882Z,94.0
2019-05-25T08:16:46.961Z,91.0
2019-05-25T08:21:47.058Z,93.0
2019-05-25T08:26:47.138Z,93.0
2019-05-25T08:28:31.556Z,93.0
2019-05-25T08:31:17.230Z,90.0
2019-05-25T08:32:07.233Z,90.0
2019-05-25T08:32:47.222Z,90.0
2019-05-25T08:33:47.258Z,91.0
2019-05-25T08:34:47.318Z,91.0
2019-05-25T08:36:07.351Z,86.0
2019-05-25T08:37:07.337Z,88.0
2019-05-25T08:37:47.347Z,89.0
2019-05-25T08:38:47.359Z,86.0
2019-05-25T08:39:37.356Z,87.0
2019-05-25T08:42:37.446Z,86.0
2019-05-25T08:43:37.508Z,88.0
2019-05-25T08:44:37.475Z,84.0
2019-05-25T08:47:47.534Z,82.0
2019-05-25T08:48:37.554Z,83.0
2019-05-25T08:49:37.588Z,81.0
2019-05-25T08:52:37.726Z,82.0
2019-05-25T08:53:41.726Z,80.0
2019-05-25T08:54:37.767Z,81.0
2019-05-25T08:57:47.810Z,78.0
2019-05-25T08:58:47.802Z,79.0
2019-05-25T08:59:37.875Z,79.0
2019-05-25T09:02:38.051Z,79.0
2019-05-25T09:03:37.998Z,74.0
2019-05-25T09:06:48.296Z,74.0
2019-05-25T09:07:38.171Z,74.0
2019-05-25T09:08:38.195Z,75.0
2019-05-25T09:09:38.206Z,74.0
2019-05-25T09:12:48.252Z,70.0
2019-05-25T09:13:38.270Z,69.0
2019-05-25T09:14:38.286Z,69.0
2019-05-25T09:17:38.569Z,70.0
2019-05-25T09:18:38.527Z,71.0
2019-05-25T09:19:38.474Z,70.0
2019-05-25T09:26:18.567Z,69.0
2019-05-25T09:27:18.561Z,68.0
2019-05-25T09:29:18.650Z,70.0
2019-05-25T09:30:18.627Z,68.0
2019-05-25T09:31:38.639Z,71.0
2019-05-25T09:36:48.701Z,69.0
2019-05-25T09:41:48.796Z,73.0
2019-05-25T09:44:19.012Z,74.0
2019-05-25T09:45:18.941Z,76.0
2019-05-25T09:46:39.075Z,76.0
2019-05-25T09:47:19.071Z,75.0
2019-05-25T09:48:19.110Z,72.0
2019-05-25T09:49:19.151Z,71.0
2019-05-25T09:50:19.158Z,72.0
2019-05-25T09:52:20.436Z,73.0
2019-05-25T09:53:19.215Z,70.0
2019-05-25T09:54:19.230Z,71.0
2019-05-25T09:55:19.324Z,70.0
2019-05-25T09:56:39.255Z,70.0
2019-05-25T09:57:19.262Z,70.0
2019-05-25T09:58:19.276Z,71.0
2019-05-25T09:59:20.267Z,70.0
2019-05-25T10:00:19.322Z,70.0
2019-05-25T10:01:39.349Z,67.0
2019-05-25T10:02:19.327Z,66.0
2019-05-25T10:03:20.136Z,66.0
2019-05-25T10:04:19.346Z,66.0
2019-05-25T10:05:19.540Z,67.0
2019-05-25T10:06:39.518Z,65.0
2019-05-25T10:07:19.537Z,60.0
2019-05-25T10:08:19.549Z,60.0
2019-05-25T10:09:19.569Z,60.0
2019-05-25T10:10:19.566Z,61.0
2019-05-25T10:11:39.586Z,62.0
2019-05-25T10:12:19.586Z,60.0
2019-05-25T10:13:19.702Z,60.0
2019-05-25T10:14:20.835Z,60.0
2019-05-25T10:15:19.729Z,62.0
2019-05-25T10:16:39.663Z,63.0
2019-05-25T10:17:19.665Z,64.0
2019-05-25T10:18:19.684Z,61.0
2019-05-25T10:19:19.695Z,63.0
2019-05-25T10:20:39.725Z,59.0
2019-05-25T10:21:39.736Z,57.0
2019-05-25T10:22:19.764Z,58.0
2019-05-25T10:23:19.766Z,59.0
2019-05-25T10:24:19.778Z,58.0
2019-05-25T10:25:40.952Z,58.0
2019-05-25T10:26:39.822Z,59.0
2019-05-25T10:27:19.817Z,58.0
2019-05-25T10:28:09.854Z,58.0
2019-05-25T10:28:49.870Z,56.0
2019-05-25T10:29:39.871Z,60.0
2019-05-25T10:32:39.981Z,57.0
2019-05-25T10:35:50.073Z,55.0
2019-05-25T10:37:20.142Z,55.0
2019-05-25T10:38:20.157Z,54.0
2019-05-25T10:39:20.169Z,53.0
2019-05-25T10:40:40.292Z,54.0
2019-05-25T10:41:40.475Z,53.0
2019-05-25T10:42:20.240Z,52.0
2019-05-25T10:43:10.247Z,53.0
2019-05-25T10:43:50.258Z,52.0
2019-05-25T10:44:50.282Z,50.0
2019-05-25T10:46:10.298Z,52.0
2019-05-25T10:47:11.515Z,51.0
2019-05-25T10:47:50.346Z,51.0
2019-05-25T10:48:50.352Z,53.0
2019-05-25T10:49:40.380Z,51.0
2019-05-25T10:50:50.394Z,48.0
2019-05-25T10:51:50.433Z,50.0
2019-05-25T10:55:50.630Z,49.0
2019-05-25T10:56:40.631Z,51.0
2019-05-25T10:57:20.643Z,50.0
2019-05-25T10:59:20.677Z,48.0
2019-05-25T11:00:40.703Z,50.0
2019-05-25T11:01:40.719Z,46.0
2019-05-25T11:02:20.765Z,46.0
2019-05-25T11:03:10.787Z,47.0
2019-05-25T11:03:50.787Z,49.0
2019-05-25T11:04:50.870Z,50.0
2019-05-25T11:06:10.919Z,46.0
2019-05-25T11:07:10.958Z,49.0
2019-05-25T11:07:51.040Z,46.0
2019-05-25T11:08:41.156Z,46.0
2019-05-25T11:10:51.169Z,49.0
2019-05-25T11:11:51.180Z,49.0
2019-05-25T11:15:51.340Z,45.0
2019-05-25T11:16:41.270Z,45.0
2019-05-25T11:17:21.292Z,45.0
2019-05-25T11:18:21.310Z,45.0
2019-05-25T11:19:24.116Z,47.0
2019-05-25T11:20:41.359Z,47.0
2019-05-25T11:21:41.376Z,46.0
2019-05-25T11:22:21.394Z,44.0
2019-05-25T11:23:11.407Z,45.0
2019-05-25T11:23:51.466Z,44.0
2019-05-25T11:24:51.714Z,42.0
2019-05-25T11:26:11.465Z,44.0
2019-05-25T11:27:11.483Z,44.0
2019-05-25T11:27:51.513Z,45.0
2019-05-25T11:28:41.514Z,44.0
2019-05-25T11:29:31.512Z,45.0
2019-05-25T11:30:52.763Z,46.0
2019-05-25T11:31:56.295Z,44.0
2019-05-25T11:32:31.618Z,45.0
2019-05-25T11:33:31.627Z,45.0
2019-05-25T11:34:31.633Z,45.0
2019-05-25T11:35:51.653Z,46.0
2019-05-25T11:36:41.654Z,46.0
2019-05-25T11:37:21.663Z,47.0
2019-05-25T11:38:21.680Z,49.0
2019-05-25T11:39:21.696Z,46.0
2019-05-25T11:40:41.703Z,46.0
2019-05-25T11:41:42.728Z,47.0
2019-05-25T11:42:21.737Z,46.0
2019-05-25T11:43:11.798Z,46.0
2019-05-25T11:43:51.751Z,47.0
2019-05-25T11:44:51.776Z,45.0
2019-05-25T11:46:11.793Z,48.0
2019-05-25T11:47:11.825Z,46.0
2019-05-25T11:47:51.829Z,45.0
2019-05-25T11:48:51.855Z,47.0
2019-05-25T11:49:41.869Z,49.0
2019-05-25T11:50:51.935Z,47.0
2019-05-25T11:52:32.202Z,46.0
2019-05-25T11:53:32.005Z,46.0
2019-05-25T11:55:52.061Z,46.0
2019-05-25T11:56:22.055Z,46.0
2019-05-25T11:57:22.064Z,44.0
2019-05-25T11:58:22.099Z,45.0
2019-05-25T11:59:22.090Z,45.0
2019-05-25T12:00:42.101Z,48.0
2019-05-25T12:05:52.179Z,47.0
2019-05-25T12:06:22.180Z,47.0
2019-05-25T12:07:22.197Z,49.0
2019-05-25T12:08:22.207Z,47.0
2019-05-25T12:09:22.245Z,46.0
2019-05-25T12:10:42.271Z,45.0
2019-05-25T12:15:52.338Z,45.0
2019-05-25T12:16:22.348Z,45.0
2019-05-25T12:17:22.398Z,48.0
2019-05-25T12:18:22.406Z,43.0
2019-05-25T12:19:22.441Z,46.0
2019-05-25T12:20:42.434Z,45.0
2019-05-25T12:25:52.542Z,46.0
2019-05-25T12:26:23.625Z,43.0
2019-05-25T12:27:22.555Z,45.0
2019-05-25T12:28:22.575Z,42.0
2019-05-25T12:29:22.579Z,43.0
2019-05-25T12:30:42.601Z,43.0
2019-05-25T12:31:22.611Z,44.0
2019-05-25T12:32:22.615Z,44.0
2019-05-25T12:33:22.633Z,44.0
2019-05-25T12:34:22.636Z,45.0
2019-05-25T12:35:45.114Z,44.0
2019-05-25T12:40:53.822Z,45.0
2019-05-25T12:41:22.782Z,46.0
2019-05-25T12:42:22.858Z,46.0
2019-05-25T12:43:22.851Z,47.0
2019-05-25T12:44:22.875Z,45.0
2019-05-25T12:45:42.902Z,45.0
2019-05-25T12:50:53.005Z,41.0
2019-05-25T12:51:22.981Z,42.0
2019-05-25T12:52:22.983Z,43.0
2019-05-25T12:53:23.008Z,42.0
2019-05-25T12:54:23.027Z,41.0
2019-05-25T12:55:43.045Z,43.0
2019-05-25T13:15:53.421Z,45.0
2019-05-25T13:16:23.430Z,46.0
2019-05-25T13:17:23.437Z,46.0
2019-05-25T13:18:23.478Z,47.0
2019-05-25T13:19:23.489Z,46.0
2019-05-25T13:20:43.495Z,46.0
2019-05-25T13:21:23.534Z,47.0
2019-05-25T13:22:23.529Z,47.0
2019-05-25T13:23:23.532Z,47.0
2019-05-25T13:24:23.549Z,46.0
2019-05-25T13:25:23.603Z,46.0
2019-05-25T13:26:23.662Z,45.0
2019-05-25T13:27:23.656Z,45.0
2019-05-25T13:28:23.668Z,46.0
2019-05-25T13:29:23.684Z,46.0
2019-05-25T13:30:23.788Z,47.0
2019-05-25T13:31:23.805Z,47.0
2019-05-25T13:32:23.812Z,47.0
2019-05-25T13:33:23.826Z,47.0
2019-05-25T13:34:23.848Z,48.0
2019-05-25T13:35:43.878Z,46.0
2019-05-25T13:40:54.141Z,44.0
2019-05-25T13:45:54.181Z,47.0
2019-05-25T13:55:54.351Z,47.0
2019-05-25T14:00:54.409Z,48.0
2019-05-25T14:05:35.671Z,47.0
2019-05-25T14:16:06.489Z,52.0
2019-05-25T14:16:35.550Z,52.0
2019-05-25T14:20:54.807Z,55.0
2019-05-25T14:25:54.882Z,56.0
2019-05-25T14:30:55.006Z,55.0
2019-05-25T14:35:55.139Z,55.0
2019-05-25T14:36:25.132Z,55.0
2019-05-25T14:37:25.146Z,55.0
2019-05-25T14:38:25.306Z,54.0
2019-05-25T14:39:25.208Z,56.0
2019-05-25T14:40:45.215Z,56.0
2019-05-25T14:41:25.231Z,56.0
2019-05-25T14:42:15.266Z,55.0
2019-05-25T14:42:55.258Z,56.0
2019-05-25T14:43:55.310Z,58.0
2019-05-25T14:44:55.309Z,56.0
2019-05-25T14:46:27.179Z,57.0
2019-05-25T14:46:55.399Z,57.0
2019-05-25T14:47:45.447Z,59.0
2019-05-25T14:48:45.455Z,60.0
2019-05-25T14:49:45.480Z,58.0
2019-05-25T14:55:55.605Z,57.0
2019-05-25T14:56:25.603Z,60.0
2019-05-25T14:57:25.667Z,61.0
2019-05-25T14:58:25.687Z,59.0
2019-05-25T14:59:25.697Z,60.0
2019-05-25T15:00:45.701Z,61.0
2019-05-25T15:01:25.778Z,60.0
2019-05-25T15:02:15.759Z,62.0
2019-05-25T15:02:56.220Z,62.0
2019-05-25T15:03:55.799Z,62.0
2019-05-25T15:04:55.828Z,61.0
2019-05-25T15:06:20.097Z,60.0
2019-05-25T15:06:55.938Z,61.0
2019-05-25T15:07:45.931Z,61.0
2019-05-25T15:08:45.960Z,62.0
2019-05-25T15:09:45.966Z,61.0
2019-05-25T15:11:45.993Z,63.0
2019-05-25T15:12:46.002Z,64.0
2019-05-25T15:13:46.021Z,64.0
2019-05-25T15:14:46.050Z,63.0
2019-05-25T15:16:56.088Z,64.0
2019-05-25T15:17:56.125Z,64.0
2019-05-25T15:18:56.130Z,65.0
2019-05-25T15:19:56.145Z,65.0
2019-05-25T15:21:16.251Z,65.0
2019-05-25T15:21:56.291Z,65.0
2019-05-25T15:22:56.275Z,65.0
2019-05-25T15:23:56.274Z,65.0
2019-05-25T15:24:56.483Z,65.0
2019-05-25T15:26:16.338Z,65.0
2019-05-25T15:26:56.352Z,66.0
2019-05-25T15:27:56.371Z,66.0
2019-05-25T15:28:56.385Z,65.0
2019-05-25T15:29:56.387Z,65.0
2019-05-25T15:31:16.404Z,66.0
2019-05-25T15:31:56.422Z,66.0
2019-05-25T15:32:56.438Z,66.0
2019-05-25T15:33:56.505Z,66.0
2019-05-25T15:34:56.469Z,68.0
2019-05-25T15:36:16.612Z,67.0
2019-05-25T15:36:56.502Z,66.0
2019-05-25T15:37:56.570Z,68.0
2019-05-25T15:38:56.604Z,67.0
2019-05-25T15:39:56.625Z,68.0
2019-05-25T15:41:16.742Z,70.0
2019-05-25T15:41:56.723Z,69.0
2019-05-25T15:42:56.730Z,70.0
2019-05-25T15:43:56.747Z,70.0
2019-05-25T15:44:56.754Z,69.0
2019-05-25T15:46:16.767Z,71.0
2019-05-25T15:46:56.917Z,72.0
2019-05-25T15:47:56.796Z,73.0
2019-05-25T15:48:56.806Z,72.0
2019-05-25T15:49:56.835Z,70.0
2019-05-25T15:51:16.848Z,69.0
2019-05-25T15:51:56.848Z,69.0
2019-05-25T15:52:57.029Z,70.0
2019-05-25T15:53:56.905Z,71.0
2019-05-25T15:54:56.908Z,71.0
2019-05-25T15:56:16.972Z,71.0
2019-05-25T15:56:56.953Z,71.0
2019-05-25T15:57:57.065Z,72.0
2019-05-25T15:58:56.972Z,72.0
2019-05-25T15:59:56.979Z,72.0
2019-05-25T16:01:17.012Z,72.0
2019-05-25T16:01:57.026Z,72.0
2019-05-25T16:02:57.033Z,73.0
2019-05-25T16:03:57.059Z,72.0
2019-05-25T16:04:57.099Z,72.0
2019-05-25T16:06:17.124Z,73.0
2019-05-25T16:06:57.159Z,73.0
2019-05-25T16:07:57.186Z,73.0
2019-05-25T16:08:58.280Z,73.0
2019-05-25T16:09:57.298Z,73.0
2019-05-25T16:11:17.295Z,73.0
2019-05-25T16:11:57.354Z,72.0
2019-05-25T16:12:57.402Z,73.0
2019-05-25T16:13:57.418Z,74.0
2019-05-25T16:14:57.666Z,74.0
2019-05-25T16:16:17.563Z,73.0
2019-05-25T16:16:57.564Z,73.0
2019-05-25T16:17:57.607Z,72.0
2019-05-25T16:18:57.599Z,72.0
2019-05-25T16:19:57.754Z,72.0
2019-05-25T16:21:57.692Z,73.0
2019-05-25T16:22:47.770Z,73.0
2019-05-25T16:23:47.831Z,74.0
2019-05-25T16:24:47.848Z,73.0
2019-05-25T16:25:57.893Z,75.0
2019-05-25T16:26:47.880Z,75.0
2019-05-25T16:27:47.979Z,75.0
2019-05-25T16:28:48.008Z,74.0
2019-05-25T16:29:48.020Z,74.0
2019-05-25T16:30:58.002Z,74.0
2019-05-25T16:31:48.086Z,74.0
2019-05-25T16:33:10.513Z,74.0
2019-05-25T16:33:48.096Z,75.0
2019-05-25T16:34:48.117Z,74.0
2019-05-25T16:35:58.212Z,75.0
2019-05-25T16:36:48.207Z,76.0
2019-05-25T16:37:48.434Z,76.0
2019-05-25T16:38:48.192Z,75.0
2019-05-25T16:39:48.202Z,75.0
2019-05-25T16:40:58.206Z,76.0
2019-05-25T16:41:48.226Z,76.0
2019-05-25T16:42:48.259Z,76.0
2019-05-25T16:43:48.272Z,76.0
2019-05-25T16:44:48.289Z,76.0
2019-05-25T16:45:58.302Z,75.0
2019-05-25T16:46:48.297Z,75.0
2019-05-25T16:47:48.308Z,75.0
2019-05-25T16:48:48.324Z,75.0
2019-05-25T16:49:48.331Z,73.0
2019-05-25T16:50:58.354Z,73.0
2019-05-25T16:51:48.371Z,73.0
2019-05-25T16:52:48.396Z,72.0
2019-05-25T16:53:48.469Z,73.0
2019-05-25T16:54:48.482Z,73.0
2019-05-25T16:55:58.550Z,72.0
2019-05-25T16:56:48.497Z,72.0
2019-05-25T16:57:48.513Z,72.0
2019-05-25T16:58:48.550Z,72.0
2019-05-25T16:59:48.565Z,72.0
2019-05-25T17:00:58.612Z,71.0
2019-05-25T17:01:49.738Z,71.0
2019-05-25T17:02:48.610Z,71.0
2019-05-25T17:03:48.617Z,70.0
2019-05-25T17:04:48.621Z,70.0
2019-05-25T17:05:58.641Z,71.0
2019-05-25T17:06:48.650Z,71.0
2019-05-25T17:07:48.665Z,70.0
2019-05-25T17:08:48.698Z,70.0
2019-05-25T17:09:48.701Z,70.0
2019-05-25T17:10:58.718Z,70.0
2019-05-25T17:11:48.728Z,70.0
2019-05-25T17:12:48.872Z,70.0
2019-05-25T17:13:48.853Z,70.0
2019-05-25T17:14:48.793Z,71.0
2019-05-25T17:15:58.806Z,71.0
2019-05-25T17:16:48.811Z,69.0
2019-05-25T17:17:48.856Z,69.0
2019-05-25T17:18:48.862Z,67.0
2019-05-25T17:19:48.876Z,68.0
2019-05-25T17:20:58.903Z,69.0
2019-05-25T17:21:49.019Z,68.0
2019-05-25T17:22:48.985Z,67.0
2019-05-25T17:23:49.141Z,66.0
2019-05-25T17:24:49.014Z,66.0
2019-05-25T17:25:59.031Z,65.0
2019-05-25T17:26:49.067Z,66.0
2019-05-25T17:27:49.049Z,65.0
2019-05-25T17:28:49.069Z,66.0
2019-05-25T17:29:49.097Z,65.0
2019-05-25T17:30:59.102Z,66.0
2019-05-25T17:31:49.113Z,66.0
2019-05-25T17:32:49.124Z,65.0
2019-05-25T17:33:49.134Z,65.0
2019-05-25T17:34:49.953Z,66.0
2019-05-25T17:35:59.171Z,64.0
2019-05-25T17:36:49.188Z,65.0
2019-05-25T17:37:49.278Z,66.0
2019-05-25T17:38:49.280Z,65.0
2019-05-25T17:39:49.295Z,65.0
2019-05-25T17:40:59.384Z,65.0
2019-05-25T17:41:49.314Z,66.0
2019-05-25T17:42:49.346Z,67.0
2019-05-25T17:43:49.336Z,66.0
2019-05-25T17:44:49.341Z,67.0
2019-05-25T17:46:00.552Z,68.0
2019-05-25T17:46:49.368Z,69.0
2019-05-25T17:47:49.390Z,67.0
2019-05-25T17:48:49.400Z,67.0
2019-05-25T17:49:49.404Z,67.0
2019-05-25T17:50:59.417Z,68.0
2019-05-25T17:51:49.431Z,67.0
2019-05-25T17:52:49.482Z,67.0
2019-05-25T17:53:49.490Z,70.0
2019-05-25T17:54:49.499Z,72.0
2019-05-25T17:56:09.672Z,72.0
2019-05-25T17:56:49.550Z,72.0
2019-05-25T17:57:49.646Z,73.0
2019-05-25T17:58:49.619Z,73.0
2019-05-25T17:59:49.623Z,74.0
2019-05-25T18:01:09.698Z,74.0
2019-05-25T18:01:59.688Z,74.0
2019-05-25T18:02:49.722Z,72.0
2019-05-25T18:04:05.363Z,73.0
2019-05-25T18:04:49.727Z,74.0
2019-05-25T18:06:49.782Z,74.0
2019-05-25T18:07:49.824Z,75.0
2019-05-25T18:08:49.850Z,74.0
2019-05-25T18:09:49.831Z,75.0
2019-05-25T18:11:59.892Z,76.0
2019-05-25T18:12:49.955Z,76.0
2019-05-25T18:13:49.965Z,76.0
2019-05-25T18:14:49.961Z,76.0
2019-05-25T18:16:50.032Z,77.0
2019-05-25T18:17:50.181Z,77.0
2019-05-25T18:18:50.065Z,79.0
2019-05-25T18:19:50.117Z,80.0
2019-05-25T18:22:00.167Z,79.0
2019-05-25T18:22:50.144Z,79.0
2019-05-25T18:23:50.169Z,78.0
2019-05-25T18:24:50.168Z,81.0
2019-05-25T18:26:50.195Z,82.0
2019-05-25T18:27:50.211Z,81.0
2019-05-25T18:28:50.337Z,80.0
2019-05-25T18:29:50.223Z,80.0
2019-05-25T18:31:10.395Z,81.0
2019-05-25T18:32:00.276Z,81.0
2019-05-25T18:33:00.358Z,82.0
2019-05-25T18:34:00.372Z,82.0
2019-05-25T18:35:20.421Z,82.0
2019-05-25T18:36:20.444Z,82.0
2019-05-25T18:37:20.444Z,83.0
2019-05-25T18:38:20.465Z,83.0
2019-05-25T18:39:20.522Z,83.0
2019-05-25T18:41:30.521Z,83.0
2019-05-25T18:45:50.608Z,84.0
2019-05-25T18:47:40.674Z,84.0
2019-05-25T18:49:30.664Z,84.0
2019-05-25T18:51:00.823Z,84.0
2019-05-25T18:51:30.687Z,84.0
2019-05-25T18:52:40.721Z,84.0
2019-05-25T18:53:30.712Z,84.0
2019-05-25T18:55:40.840Z,85.0
2019-05-25T18:56:50.777Z,85.0
2019-05-25T18:57:50.864Z,85.0
2019-05-25T18:58:30.800Z,85.0
2019-05-25T18:59:40.847Z,85.0
2019-05-25T19:00:30.876Z,86.0
2019-05-25T19:02:01.991Z,86.0
2019-05-25T19:02:50.906Z,86.0
2019-05-25T19:03:30.905Z,86.0
2019-05-25T19:04:44.156Z,87.0
2019-05-25T19:05:40.968Z,87.0
2019-05-25T19:07:00.966Z,87.0
2019-05-25T19:07:50.995Z,87.0
2019-05-25T19:08:31.008Z,87.0
2019-05-25T19:09:41.060Z,87.0
2019-05-25T19:10:41.133Z,87.0
2019-05-25T19:12:01.124Z,87.0
2019-05-25T19:12:52.228Z,87.0
2019-05-25T19:13:31.242Z,87.0
2019-05-25T19:14:31.183Z,87.0
2019-05-25T19:15:41.285Z,87.0
2019-05-25T19:16:51.247Z,87.0
2019-05-25T19:18:41.306Z,87.0
2019-05-25T19:19:41.272Z,87.0
2019-05-25T19:22:41.368Z,86.0
2019-05-25T19:23:31.373Z,86.0
2019-05-25T19:24:31.386Z,87.0
2019-05-25T19:25:31.412Z,87.0
2019-05-25T19:26:41.474Z,87.0
2019-05-25T19:28:31.536Z,86.0
2019-05-25T19:29:31.530Z,86.0
2019-05-25T19:30:31.632Z,86.0
2019-05-25T19:33:31.762Z,86.0
2019-05-25T19:34:31.806Z,86.0
2019-05-25T19:35:31.844Z,86.0
2019-05-25T19:36:41.942Z,86.0
2019-05-25T19:38:31.965Z,86.0
2019-05-25T19:39:31.953Z,86.0
2019-05-25T19:40:31.984Z,87.0
2019-05-25T19:43:32.016Z,87.0
2019-05-25T19:44:32.016Z,86.0
2019-05-25T19:45:32.912Z,87.0
2019-05-25T19:48:32.078Z,86.0
2019-05-25T19:49:32.145Z,86.0
2019-05-25T19:50:32.186Z,87.0
2019-05-25T19:53:32.239Z,87.0
2019-05-25T19:54:32.296Z,87.0
2019-05-25T19:55:32.308Z,88.0
2019-05-25T19:56:42.494Z,87.0
2019-05-25T19:58:32.408Z,87.0
2019-05-25T19:59:32.419Z,87.0
2019-05-25T20:00:32.446Z,88.0
2019-05-25T20:03:32.502Z,88.0
2019-05-25T20:04:32.511Z,88.0
2019-05-25T20:05:32.521Z,88.0
2019-05-25T20:08:32.613Z,88.0
2019-05-25T20:09:32.693Z,88.0
2019-05-25T20:10:32.728Z,88.0
2019-05-25T20:13:32.896Z,89.0
2019-05-25T20:14:32.811Z,89.0
2019-05-25T20:15:32.806Z,89.0
2019-05-25T20:18:34.080Z,89.0
2019-05-25T20:19:32.904Z,89.0
2019-05-25T20:20:32.917Z,89.0
2019-05-25T20:23:32.974Z,88.0
2019-05-25T20:24:32.988Z,88.0
2019-05-25T20:25:33.010Z,88.0
2019-05-25T20:28:33.089Z,89.0
2019-05-25T20:29:33.097Z,90.0
2019-05-25T20:30:33.122Z,90.0
2019-05-25T20:32:43.285Z,90.0
2019-05-25T20:33:34.901Z,90.0
2019-05-25T20:34:33.240Z,90.0
2019-05-25T20:35:33.687Z,90.0
2019-05-25T20:38:33.451Z,90.0
2019-05-25T20:39:33.385Z,90.0